Argenta, Texas
Current Conditions -  °F | °C
As of 7:55 AM on Thursday 23 Oct 2014 (Local Time) from KRBO Reporting Station
Heavy Rain Heavy Rain  
Wind Chill: 65°   Ceiling: Unl
Heat Index: 65°   Visibility: 5mi
Dew Point: 64°   Wind: 8mph
Humidity: 94%   Direction: 10°N
Pressure: 30.07"   Gusts: NA
Location:  28.0654°N, 97.7489°W
Report Text: KRBO 231255Z AUTO 01007KT 5SM +RA CLR 19/18 A3007 RMK AO2 T01850176
Loading
Personal Weather Stations






























Interactive Weather Map New forecast layout! Learn more

10-Day Weather Forecast

Advertisements
Track Severe Weather on mobile